WJA185 CYYC-CYLW
Flight info
| Callsign | WJA185 |
|---|---|
| Flight time | 0h 44m |
| Altitude | 36000 |
| Route | BOTAG Q894 BINVO DCT ROBTI DCT NORIP NORIP5 |
| Aircraft | B737/M-SDE2E3FGHIRWXY/LB1 |
Departure
| Time | 2026-05-09 03:18 |
|---|---|
| Airport | Calgary International Airport (CYYC) |
Arrival
| Time | 2026-05-09 04:02 |
|---|---|
| Airport | Kelowna International Airport (CYLW) |
| Time | Latitude | Longitude | Altitude | Speed | Heading |
|---|---|---|---|---|---|
| 2026-05-09 02:40 | 51.13179 | -114.01292 | 3558 ft | 0 kts | 72° |
| 2026-05-09 02:44 | 51.13179 | -114.01293 | 3558 ft | 0 kts | 72° |
| 2026-05-09 03:00 | 51.13178 | -114.01299 | 3556 ft | 3 kts | 73° |
| 2026-05-09 03:00 | 51.13170 | -114.01341 | 3552 ft | 4 kts | 75° |
| 2026-05-09 03:00 | 51.13164 | -114.01382 | 3558 ft | 4 kts | 78° |
| 2026-05-09 03:00 | 51.13159 | -114.01424 | 3554 ft | 4 kts | 81° |
| 2026-05-09 03:01 | 51.13155 | -114.01466 | 3558 ft | 4 kts | 85° |
| 2026-05-09 03:01 | 51.13154 | -114.01494 | 3558 ft | 1 kts | 89° |
| 2026-05-09 03:05 | 51.13154 | -114.01479 | 3558 ft | 2 kts | 96° |
| 2026-05-09 03:05 | 51.13149 | -114.01453 | 3558 ft | 5 kts | 111° |
| 2026-05-09 03:06 | 51.13121 | -114.01404 | 3558 ft | 6 kts | 149° |
| 2026-05-09 03:06 | 51.13080 | -114.01379 | 3558 ft | 6 kts | 163° |
| 2026-05-09 03:06 | 51.13037 | -114.01389 | 3556 ft | 7 kts | 211° |
| 2026-05-09 03:06 | 51.13001 | -114.01435 | 3558 ft | 7 kts | 220° |
| 2026-05-09 03:07 | 51.12964 | -114.01476 | 3555 ft | 7 kts | 204° |
| 2026-05-09 03:07 | 51.12915 | -114.01497 | 3558 ft | 8 kts | 206° |
| 2026-05-09 03:07 | 51.12895 | -114.01570 | 3558 ft | 7 kts | 269° |
| 2026-05-09 03:07 | 51.12895 | -114.01651 | 3558 ft | 7 kts | 269° |
| 2026-05-09 03:08 | 51.12893 | -114.01729 | 3558 ft | 7 kts | 260° |
| 2026-05-09 03:08 | 51.12862 | -114.01788 | 3557 ft | 8 kts | 205° |
| 2026-05-09 03:08 | 51.12800 | -114.01796 | 3557 ft | 11 kts | 180° |
| 2026-05-09 03:08 | 51.12716 | -114.01795 | 3558 ft | 14 kts | 180° |
| 2026-05-09 03:09 | 51.12611 | -114.01795 | 3558 ft | 16 kts | 180° |
| 2026-05-09 03:09 | 51.12497 | -114.01795 | 3557 ft | 16 kts | 180° |
| 2026-05-09 03:09 | 51.12386 | -114.01796 | 3556 ft | 16 kts | 180° |
| 2026-05-09 03:09 | 51.12280 | -114.01796 | 3557 ft | 15 kts | 180° |
| 2026-05-09 03:10 | 51.12178 | -114.01796 | 3554 ft | 14 kts | 180° |
| 2026-05-09 03:10 | 51.12080 | -114.01796 | 3557 ft | 14 kts | 180° |
| 2026-05-09 03:10 | 51.11987 | -114.01796 | 3559 ft | 13 kts | 180° |
| 2026-05-09 03:10 | 51.11897 | -114.01796 | 3555 ft | 13 kts | 180° |
| 2026-05-09 03:11 | 51.11808 | -114.01797 | 3558 ft | 13 kts | 180° |
| 2026-05-09 03:11 | 51.11710 | -114.01797 | 3556 ft | 15 kts | 180° |
| 2026-05-09 03:11 | 51.11601 | -114.01797 | 3558 ft | 16 kts | 180° |
| 2026-05-09 03:11 | 51.11481 | -114.01797 | 3558 ft | 18 kts | 180° |
| 2026-05-09 03:12 | 51.11355 | -114.01797 | 3564 ft | 19 kts | 180° |
| 2026-05-09 03:12 | 51.11218 | -114.01797 | 3556 ft | 20 kts | 180° |
| 2026-05-09 03:12 | 51.11086 | -114.01798 | 3557 ft | 18 kts | 180° |
| 2026-05-09 03:12 | 51.10966 | -114.01798 | 3558 ft | 17 kts | 180° |
| 2026-05-09 03:13 | 51.10738 | -114.01798 | 3558 ft | 16 kts | 180° |
| 2026-05-09 03:13 | 51.10630 | -114.01798 | 3558 ft | 15 kts | 180° |
| 2026-05-09 03:13 | 51.10527 | -114.01799 | 3558 ft | 15 kts | 180° |
| 2026-05-09 03:14 | 51.10428 | -114.01799 | 3559 ft | 14 kts | 180° |
| 2026-05-09 03:14 | 51.10334 | -114.01799 | 3558 ft | 13 kts | 180° |
| 2026-05-09 03:14 | 51.10243 | -114.01799 | 3558 ft | 13 kts | 180° |
| 2026-05-09 03:14 | 51.10148 | -114.01799 | 3557 ft | 15 kts | 180° |
| 2026-05-09 03:15 | 51.10035 | -114.01799 | 3557 ft | 17 kts | 180° |
| 2026-05-09 03:15 | 51.09908 | -114.01799 | 3556 ft | 19 kts | 178° |
| 2026-05-09 03:15 | 51.09782 | -114.01798 | 3555 ft | 16 kts | 180° |
| 2026-05-09 03:15 | 51.09715 | -114.01818 | 3554 ft | 9 kts | 219° |
| 2026-05-09 03:16 | 51.09691 | -114.01903 | 3558 ft | 9 kts | 265° |
| 2026-05-09 03:16 | 51.09690 | -114.01997 | 3559 ft | 8 kts | 270° |
| 2026-05-09 03:16 | 51.09690 | -114.02086 | 3560 ft | 8 kts | 271° |
| 2026-05-09 03:16 | 51.09729 | -114.02139 | 3560 ft | 8 kts | 353° |
| 2026-05-09 03:17 | 51.09757 | -114.02139 | 3558 ft | 3 kts | 0° |
| 2026-05-09 03:17 | 51.09916 | -114.02139 | 3559 ft | 59 kts | 0° |
| 2026-05-09 03:17 | 51.10584 | -114.02138 | 3557 ft | 129 kts | 0° |
| 2026-05-09 03:17 | 51.11660 | -114.02141 | 3713 ft | 171 kts | 1° |
| 2026-05-09 03:18 | 51.12867 | -114.02153 | 4514 ft | 179 kts | 3° |
| 2026-05-09 03:18 | 51.14128 | -114.02182 | 5347 ft | 182 kts | 3° |
| 2026-05-09 03:18 | 51.15435 | -114.02232 | 6038 ft | 197 kts | 2° |
| 2026-05-09 03:18 | 51.16853 | -114.02246 | 6654 ft | 207 kts | 3° |
| 2026-05-09 03:19 | 51.18338 | -114.02446 | 7176 ft | 232 kts | 347° |
| 2026-05-09 03:19 | 51.19904 | -114.03655 | 7545 ft | 266 kts | 323° |
| 2026-05-09 03:19 | 51.21055 | -114.06041 | 8358 ft | 282 kts | 291° |
| 2026-05-09 03:19 | 51.21209 | -114.09144 | 9486 ft | 285 kts | 258° |
| 2026-05-09 03:20 | 51.20361 | -114.11981 | 10643 ft | 287 kts | 239° |
| 2026-05-09 03:20 | 51.19252 | -114.14772 | 11171 ft | 311 kts | 240° |
| 2026-05-09 03:20 | 51.18143 | -114.17827 | 11916 ft | 322 kts | 243° |
| 2026-05-09 03:20 | 51.17116 | -114.21014 | 12956 ft | 325 kts | 245° |
| 2026-05-09 03:21 | 51.16167 | -114.24280 | 14093 ft | 324 kts | 248° |
| 2026-05-09 03:21 | 51.15272 | -114.27599 | 15082 ft | 329 kts | 249° |
| 2026-05-09 03:21 | 51.14397 | -114.31000 | 15990 ft | 335 kts | 249° |
| 2026-05-09 03:21 | 51.13526 | -114.34477 | 16924 ft | 341 kts | 250° |
| 2026-05-09 03:22 | 51.12651 | -114.38012 | 17882 ft | 346 kts | 250° |
| 2026-05-09 03:22 | 51.11766 | -114.41607 | 18736 ft | 352 kts | 250° |
| 2026-05-09 03:22 | 51.10882 | -114.45199 | 19586 ft | 355 kts | 249° |
| 2026-05-09 03:22 | 51.09973 | -114.48886 | 20374 ft | 361 kts | 249° |
| 2026-05-09 03:23 | 51.09045 | -114.52650 | 21102 ft | 369 kts | 250° |
| 2026-05-09 03:23 | 51.08099 | -114.56480 | 21844 ft | 375 kts | 250° |
| 2026-05-09 03:23 | 51.07139 | -114.60384 | 22596 ft | 381 kts | 251° |
| 2026-05-09 03:23 | 51.06365 | -114.64433 | 23332 ft | 387 kts | 257° |
| 2026-05-09 03:24 | 51.05748 | -114.68628 | 23974 ft | 392 kts | 258° |
| 2026-05-09 03:24 | 51.05136 | -114.72869 | 24655 ft | 395 kts | 258° |
| 2026-05-09 03:24 | 51.04497 | -114.77123 | 25372 ft | 396 kts | 257° |
| 2026-05-09 03:24 | 51.03834 | -114.81390 | 26053 ft | 399 kts | 257° |
| 2026-05-09 03:25 | 51.03148 | -114.85686 | 26692 ft | 402 kts | 257° |
| 2026-05-09 03:25 | 51.02447 | -114.90012 | 27300 ft | 406 kts | 257° |
| 2026-05-09 03:25 | 51.01737 | -114.94379 | 27876 ft | 410 kts | 257° |
| 2026-05-09 03:25 | 51.01019 | -114.98780 | 28455 ft | 414 kts | 256° |
| 2026-05-09 03:26 | 51.00294 | -115.03221 | 29094 ft | 416 kts | 256° |
| 2026-05-09 03:26 | 50.99813 | -115.06162 | 29619 ft | 414 kts | 256° |
| 2026-05-09 03:26 | 50.99092 | -115.10565 | 30444 ft | 410 kts | 256° |
| 2026-05-09 03:26 | 50.98378 | -115.14919 | 31220 ft | 405 kts | 256° |
| 2026-05-09 03:27 | 50.97671 | -115.19222 | 31976 ft | 400 kts | 256° |
| 2026-05-09 03:27 | 50.96742 | -115.24860 | 32881 ft | 396 kts | 256° |
| 2026-05-09 03:27 | 50.96047 | -115.29065 | 33557 ft | 393 kts | 256° |
| 2026-05-09 03:27 | 50.95579 | -115.31898 | 34008 ft | 392 kts | 255° |
| 2026-05-09 03:28 | 50.94885 | -115.36082 | 34442 ft | 393 kts | 255° |
| 2026-05-09 03:28 | 50.94188 | -115.40275 | 34803 ft | 395 kts | 255° |
| 2026-05-09 03:28 | 50.93484 | -115.44498 | 35247 ft | 395 kts | 255° |
| 2026-05-09 03:28 | 50.92782 | -115.48704 | 35698 ft | 394 kts | 255° |
| 2026-05-09 03:29 | 50.92078 | -115.52905 | 35997 ft | 397 kts | 256° |
| 2026-05-09 03:29 | 50.91365 | -115.57153 | 35984 ft | 400 kts | 256° |
| 2026-05-09 03:29 | 50.89949 | -115.65554 | 35988 ft | 393 kts | 256° |
| 2026-05-09 03:30 | 50.88532 | -115.73926 | 36004 ft | 395 kts | 255° |
| 2026-05-09 03:30 | 50.87100 | -115.82342 | 36009 ft | 396 kts | 255° |
| 2026-05-09 03:31 | 50.85660 | -115.90762 | 36000 ft | 397 kts | 255° |
| 2026-05-09 03:31 | 50.84211 | -115.99200 | 36000 ft | 397 kts | 255° |
| 2026-05-09 03:32 | 50.82755 | -116.07633 | 35989 ft | 397 kts | 255° |
| 2026-05-09 03:32 | 50.81294 | -116.16058 | 35999 ft | 396 kts | 255° |
| 2026-05-09 03:33 | 50.79832 | -116.24443 | 36004 ft | 395 kts | 254° |
| 2026-05-09 03:33 | 50.78366 | -116.32816 | 35991 ft | 395 kts | 254° |
| 2026-05-09 03:34 | 50.76906 | -116.41117 | 36007 ft | 394 kts | 254° |
| 2026-05-09 03:34 | 50.75348 | -116.49403 | 36013 ft | 393 kts | 251° |
| 2026-05-09 03:35 | 50.73457 | -116.57518 | 36031 ft | 394 kts | 249° |
| 2026-05-09 03:35 | 50.71515 | -116.65627 | 36039 ft | 396 kts | 249° |
| 2026-05-09 03:36 | 50.69574 | -116.73777 | 36039 ft | 397 kts | 249° |
| 2026-05-09 03:36 | 50.67635 | -116.81943 | 36042 ft | 398 kts | 249° |
| 2026-05-09 03:37 | 50.65692 | -116.90113 | 36045 ft | 398 kts | 249° |
| 2026-05-09 03:37 | 50.63740 | -116.98299 | 35518 ft | 400 kts | 249° |
| 2026-05-09 03:38 | 50.62761 | -117.02391 | 34964 ft | 400 kts | 249° |
| 2026-05-09 03:38 | 50.61792 | -117.06436 | 34393 ft | 400 kts | 248° |
| 2026-05-09 03:38 | 50.60793 | -117.10597 | 33720 ft | 402 kts | 247° |
| 2026-05-09 03:38 | 50.59816 | -117.14655 | 33171 ft | 400 kts | 248° |
| 2026-05-09 03:39 | 50.58835 | -117.18724 | 32673 ft | 397 kts | 248° |
| 2026-05-09 03:39 | 50.57859 | -117.22765 | 32203 ft | 393 kts | 248° |
| 2026-05-09 03:39 | 50.56890 | -117.26771 | 31741 ft | 390 kts | 248° |
| 2026-05-09 03:39 | 50.55927 | -117.30744 | 31290 ft | 387 kts | 248° |
| 2026-05-09 03:40 | 50.54968 | -117.34692 | 30852 ft | 385 kts | 248° |
| 2026-05-09 03:40 | 50.54014 | -117.38614 | 30405 ft | 383 kts | 248° |
| 2026-05-09 03:40 | 50.53062 | -117.42522 | 29931 ft | 381 kts | 248° |
| 2026-05-09 03:40 | 50.52117 | -117.46395 | 29425 ft | 378 kts | 248° |
| 2026-05-09 03:41 | 50.51177 | -117.50236 | 28932 ft | 375 kts | 248° |
| 2026-05-09 03:41 | 50.50246 | -117.54038 | 28464 ft | 371 kts | 248° |
| 2026-05-09 03:41 | 50.49323 | -117.57802 | 27980 ft | 368 kts | 248° |
| 2026-05-09 03:41 | 50.48403 | -117.61541 | 27507 ft | 365 kts | 248° |
| 2026-05-09 03:42 | 50.47491 | -117.65245 | 27045 ft | 362 kts | 248° |
| 2026-05-09 03:42 | 50.46598 | -117.68868 | 26598 ft | 359 kts | 248° |
| 2026-05-09 03:42 | 50.45697 | -117.72514 | 26134 ft | 357 kts | 248° |
| 2026-05-09 03:42 | 50.44801 | -117.76137 | 25684 ft | 355 kts | 248° |
| 2026-05-09 03:43 | 50.43910 | -117.79729 | 25240 ft | 353 kts | 248° |
| 2026-05-09 03:43 | 50.43022 | -117.83305 | 24788 ft | 351 kts | 248° |
| 2026-05-09 03:43 | 50.42137 | -117.86864 | 24339 ft | 349 kts | 248° |
| 2026-05-09 03:43 | 50.41253 | -117.90416 | 23862 ft | 349 kts | 248° |
| 2026-05-09 03:44 | 50.40369 | -117.93957 | 23352 ft | 349 kts | 248° |
| 2026-05-09 03:44 | 50.39486 | -117.97493 | 22847 ft | 346 kts | 248° |
| 2026-05-09 03:44 | 50.38610 | -118.00995 | 22357 ft | 344 kts | 248° |
| 2026-05-09 03:44 | 50.37739 | -118.04471 | 21885 ft | 341 kts | 248° |
| 2026-05-09 03:45 | 50.36874 | -118.07917 | 21428 ft | 338 kts | 248° |
| 2026-05-09 03:45 | 50.36016 | -118.11329 | 20977 ft | 335 kts | 248° |
| 2026-05-09 03:45 | 50.35163 | -118.14718 | 20519 ft | 332 kts | 248° |
| 2026-05-09 03:45 | 50.34318 | -118.18069 | 20081 ft | 329 kts | 248° |
| 2026-05-09 03:46 | 50.33478 | -118.21392 | 19648 ft | 327 kts | 248° |
| 2026-05-09 03:46 | 50.32643 | -118.24694 | 19193 ft | 325 kts | 248° |
| 2026-05-09 03:46 | 50.31812 | -118.27977 | 18754 ft | 324 kts | 248° |
| 2026-05-09 03:46 | 50.30985 | -118.31242 | 18309 ft | 322 kts | 248° |
| 2026-05-09 03:47 | 50.30169 | -118.34451 | 17802 ft | 321 kts | 248° |
| 2026-05-09 03:47 | 50.29406 | -118.37714 | 17325 ft | 318 kts | 251° |
| 2026-05-09 03:47 | 50.28746 | -118.40999 | 16865 ft | 315 kts | 253° |
| 2026-05-09 03:47 | 50.28115 | -118.44265 | 16414 ft | 312 kts | 253° |
| 2026-05-09 03:48 | 50.27481 | -118.47539 | 15965 ft | 309 kts | 253° |
| 2026-05-09 03:48 | 50.26861 | -118.50707 | 15535 ft | 307 kts | 253° |
| 2026-05-09 03:48 | 50.26234 | -118.53877 | 15104 ft | 304 kts | 253° |
| 2026-05-09 03:48 | 50.25609 | -118.57009 | 14688 ft | 301 kts | 253° |
| 2026-05-09 03:49 | 50.24985 | -118.60127 | 14257 ft | 300 kts | 253° |
| 2026-05-09 03:49 | 50.24364 | -118.63223 | 13830 ft | 298 kts | 253° |
| 2026-05-09 03:49 | 50.23745 | -118.66299 | 13359 ft | 296 kts | 253° |
| 2026-05-09 03:49 | 50.23128 | -118.69357 | 12887 ft | 293 kts | 253° |
| 2026-05-09 03:50 | 50.22529 | -118.72382 | 12445 ft | 290 kts | 256° |
| 2026-05-09 03:50 | 50.22245 | -118.75489 | 11999 ft | 287 kts | 267° |
| 2026-05-09 03:50 | 50.22166 | -118.78594 | 11561 ft | 285 kts | 269° |
| 2026-05-09 03:50 | 50.22122 | -118.81678 | 11138 ft | 282 kts | 269° |
| 2026-05-09 03:51 | 50.22072 | -118.84713 | 10697 ft | 276 kts | 269° |
| 2026-05-09 03:51 | 50.22014 | -118.87661 | 10313 ft | 270 kts | 269° |
| 2026-05-09 03:51 | 50.21947 | -118.90540 | 10116 ft | 258 kts | 268° |
| 2026-05-09 03:51 | 50.21877 | -118.93298 | 9860 ft | 254 kts | 268° |
| 2026-05-09 03:52 | 50.21803 | -118.96030 | 9490 ft | 249 kts | 268° |
| 2026-05-09 03:52 | 50.21730 | -118.98677 | 9131 ft | 245 kts | 268° |
| 2026-05-09 03:52 | 50.21655 | -119.01307 | 8796 ft | 239 kts | 268° |
| 2026-05-09 03:52 | 50.21582 | -119.03866 | 8473 ft | 233 kts | 268° |
| 2026-05-09 03:53 | 50.21509 | -119.06362 | 8392 ft | 231 kts | 268° |
| 2026-05-09 03:53 | 50.21435 | -119.08865 | 8270 ft | 227 kts | 268° |
| 2026-05-09 03:53 | 50.21363 | -119.11284 | 8160 ft | 219 kts | 268° |
| 2026-05-09 03:53 | 50.21293 | -119.13632 | 7968 ft | 217 kts | 268° |
| 2026-05-09 03:54 | 50.21222 | -119.15991 | 7718 ft | 217 kts | 268° |
| 2026-05-09 03:54 | 50.21150 | -119.18340 | 7462 ft | 216 kts | 268° |
| 2026-05-09 03:54 | 50.21078 | -119.20678 | 7215 ft | 215 kts | 268° |
| 2026-05-09 03:54 | 50.21006 | -119.23006 | 6953 ft | 214 kts | 268° |
| 2026-05-09 03:55 | 50.20905 | -119.25318 | 6693 ft | 213 kts | 262° |
| 2026-05-09 03:55 | 50.20579 | -119.27569 | 6449 ft | 212 kts | 252° |
| 2026-05-09 03:55 | 50.19999 | -119.29644 | 6200 ft | 206 kts | 242° |
| 2026-05-09 03:55 | 50.19200 | -119.31471 | 5929 ft | 202 kts | 231° |
| 2026-05-09 03:56 | 50.18218 | -119.33011 | 5660 ft | 198 kts | 221° |
| 2026-05-09 03:56 | 50.17107 | -119.34216 | 5415 ft | 192 kts | 211° |
| 2026-05-09 03:56 | 50.15916 | -119.35112 | 5187 ft | 190 kts | 203° |
| 2026-05-09 03:56 | 50.14689 | -119.35901 | 4971 ft | 191 kts | 203° |
| 2026-05-09 03:57 | 50.13485 | -119.36678 | 4759 ft | 184 kts | 204° |
| 2026-05-09 03:57 | 50.12339 | -119.37419 | 4566 ft | 177 kts | 204° |
| 2026-05-09 03:57 | 50.11225 | -119.38141 | 4352 ft | 170 kts | 203° |
| 2026-05-09 03:57 | 50.10145 | -119.38841 | 4150 ft | 165 kts | 204° |
| 2026-05-09 03:58 | 50.09104 | -119.39486 | 3953 ft | 157 kts | 200° |
| 2026-05-09 03:58 | 50.08050 | -119.39918 | 3766 ft | 158 kts | 191° |
| 2026-05-09 03:58 | 50.06975 | -119.40072 | 3633 ft | 155 kts | 181° |
| 2026-05-09 03:58 | 50.05911 | -119.39962 | 3424 ft | 148 kts | 174° |
| 2026-05-09 03:59 | 50.04937 | -119.39746 | 3203 ft | 135 kts | 173° |
| 2026-05-09 03:59 | 50.04032 | -119.39540 | 3016 ft | 129 kts | 173° |
| 2026-05-09 03:59 | 50.03141 | -119.39338 | 2854 ft | 131 kts | 173° |
| 2026-05-09 03:59 | 50.02233 | -119.39134 | 2664 ft | 132 kts | 173° |
| 2026-05-09 04:00 | 50.01326 | -119.38931 | 2469 ft | 131 kts | 173° |
| 2026-05-09 04:00 | 50.00432 | -119.38731 | 2279 ft | 130 kts | 173° |
| 2026-05-09 04:00 | 49.99544 | -119.38520 | 2066 ft | 128 kts | 172° |
| 2026-05-09 04:00 | 49.98675 | -119.38292 | 1881 ft | 123 kts | 173° |
| 2026-05-09 04:01 | 49.97839 | -119.38095 | 1682 ft | 118 kts | 177° |
| 2026-05-09 04:01 | 49.97027 | -119.37971 | 1519 ft | 119 kts | 178° |
| 2026-05-09 04:01 | 49.96228 | -119.37856 | 1428 ft | 107 kts | 179° |
| 2026-05-09 04:01 | 49.95632 | -119.37781 | 1420 ft | 56 kts | 174° |
| 2026-05-09 04:02 | 49.95343 | -119.37743 | 1416 ft | 35 kts | 175° |
| 2026-05-09 04:02 | 49.95201 | -119.37722 | 1418 ft | 15 kts | 176° |
| 2026-05-09 04:02 | 49.95155 | -119.37771 | 1419 ft | 8 kts | 255° |
| 2026-05-09 04:02 | 49.95149 | -119.37857 | 1419 ft | 8 kts | 265° |
| 2026-05-09 04:03 | 49.95120 | -119.37909 | 1419 ft | 7 kts | 189° |
| 2026-05-09 04:03 | 49.95072 | -119.37906 | 1419 ft | 6 kts | 174° |
| 2026-05-09 04:03 | 49.95047 | -119.37903 | 1419 ft | 1 kts | 184° |
| 2026-05-09 04:03 | 49.95040 | -119.37909 | 1419 ft | 1 kts | 208° |
| 2026-05-09 04:04 | 49.95034 | -119.37918 | 1419 ft | 1 kts | 228° |
| 2026-05-09 04:04 | 49.95031 | -119.37936 | 1419 ft | 2 kts | 265° |
| 2026-05-09 04:04 | 49.95037 | -119.37961 | 1419 ft | 2 kts | 298° |
| 2026-05-09 04:04 | 49.95047 | -119.37981 | 1419 ft | 2 kts | 307° |
| 2026-05-09 04:05 | 49.95054 | -119.37995 | 1419 ft | 1 kts | 309° |
| 2026-05-09 04:05 | 49.95060 | -119.38007 | 1419 ft | 1 kts | 310° |
| 2026-05-09 04:05 | 49.95062 | -119.38010 | 1419 ft | 0 kts | 310° |